Monday, November 19, 2018, 7:35 AM GMT
Back to Local

CYTR, Trenton, Ont.

Location: , , Canada Lat: 44.117
Local Time: 7:35 AM GMT ( 7:35 GMT) Lon: -77.533
Time Zone: GMT Elev: 278 ft

Show me the last for .
Show Decoded

2018-11-19 07:00 METAR CYTR 190700Z 28006KT 6SM -SHRA BR BKN018 OVC059 02/02 A3007 RMK SC6SC2
                 PCPN VRY LGT SLP188 =
2018-11-19 06:44 METAR CYTR 190644Z 25004KT 6SM -SHRA BR BKN018 OVC059 02/02 A3007 RMK SC6SC2
                 SLP188 =
2018-11-19 06:20 METAR CYTR 190620Z 26002KT 15SM BKN018 OVC059 01/01 A3008 RMK SC6SC2 SLP190 =
2018-11-19 06:00 METAR CYTR 190600Z 23002KT 15SM -SHRA BKN012 OVC055 02/01 A3008 RMK SF6SC2 PCPN
                 VRY LGT SLP192 =
2018-11-19 05:38 METAR CYTR 190538Z 24002KT 15SM -SHRA BKN015 OVC055 03/02 A3009 RMK SC6SC2
                 SLP194 =
2018-11-19 05:00 METAR CYTR 190500Z 21002KT 15SM BKN015 OVC055 03/01 A3010 RMK SC6SC2 SLP196 =
2018-11-19 04:00 METAR CYTR 190400Z 21004KT 15SM BKN015 OVC050 03/01 A3011 RMK SC5SC3 SLP200 =
2018-11-19 03:00 METAR CYTR 190300Z 19004KT 15SM BKN015 OVC050 02/01 A3012 RMK SC5SC3 SLP204 =
2018-11-19 02:00 METAR CYTR 190200Z 16003KT 15SM SCT015 OVC050 01/M00 A3013 RMK SC4SC4 SLP210 =
2018-11-19 01:00 METAR CYTR 190100Z 11002KT 15SM SCT015 OVC045 01/M02 A3015 RMK SC4SC4 SLP217 =
2018-11-19 00:00 METAR CYTR 190000Z 12004KT 15SM SCT023 OVC045 00/M02 A3017 RMK SC4SC4 SLP222 =
2018-11-18 23:00 METAR CYTR 182300Z 09002KT 15SM OVC045 M00/M02 A3018 RMK SC8 SLP226 =
2018-11-18 22:00 METAR CYTR 182200Z 06002KT 15SM OVC045 00/M02 A3019 RMK SC8 SLP229 =
2018-11-18 21:00 METAR CYTR 182100Z 12003KT 15SM OVC045 01/M03 A3020 RMK SC8 SLP232 =
2018-11-18 20:00 METAR CYTR 182000Z 10002KT 15SM OVC045 00/M03 A3022 RMK SC8 SLP239 =
2018-11-18 19:00 METAR CYTR 181900Z 05002KT 15SM OVC045 00/M04 A3024 RMK SC8 SLP246 =
2018-11-18 18:00 METAR CYTR 181800Z 10002KT 15SM BKN027 OVC090 M00/M05 A3026 RMK SC6AC2 SLP252 =
2018-11-18 17:00 METAR CYTR 181700Z 00000KT 15SM BKN030 OVC090 M01/M05 A3028 RMK SC7AC1 SLP261 =
2018-11-18 16:00 METAR CYTR 181600Z 07003KT 15SM BKN030 OVC090 M03/M06 A3032 RMK SC6AC2 SLP272 =
2018-11-18 15:00 METAR CYTR 181500Z 04004KT 15SM BKN038 OVC180 M04/M07 A3034 RMK SC6AC2 SLP280 =
2018-11-18 14:00 METAR CYTR 181400Z 03006KT 15SM BKN047 OVC180 M05/M07 A3034 RMK SC6AC2 SLP281 =
2018-11-18 13:00 METAR CYTR 181300Z 36002KT 15SM BKN047 OVC180 M06/M08 A3035 RMK SC6AC2 SLP283 =
2018-11-18 12:00 METAR CYTR 181200Z 07003KT 15SM BKN047 OVC180 M06/M08 A3034 RMK SC6AC2 SLP282 =
2018-11-18 11:00 METAR CYTR 181100Z 01002KT 15SM BKN047 M06/M08 A3035 RMK SC5 SLP283 =
2018-11-18 10:00 METAR CYTR 181000Z 03002KT 15SM BKN043 M06/M08 A3034 RMK SC5 SLP279 =
2018-11-18 09:00 METAR CYTR 180900Z 03003KT 15SM SCT043 M07/M08 A3034 RMK SC4 SLP278 =
2018-11-18 08:00 METAR CYTR 180800Z 04002KT 15SM BKN038 M07/M08 A3034 RMK SC5 FROIN SLP279 =

Support USWX by starting your Amazon purchase here.